createdAt,value
2022-08-02T00:01:04.496Z,97149.72
2022-08-02T00:03:35.750Z,97146.19
2022-08-02T00:06:04.149Z,97150.97
2022-08-02T00:08:38.358Z,97154.94
2022-08-02T00:11:10.237Z,97154.59
2022-08-02T00:13:41.620Z,97143.06
2022-08-02T00:16:11.170Z,97160.81
2022-08-02T00:18:45.833Z,97173.50
2022-08-02T00:21:18.273Z,97173.84
2022-08-02T00:24:27.575Z,97172.94
2022-08-02T00:26:40.627Z,97167.31
2022-08-02T00:29:09.030Z,97168.47
2022-08-02T00:31:38.611Z,97165.66
2022-08-02T00:34:29.135Z,97162.38
2022-08-02T00:36:55.330Z,97163.00
2022-08-02T00:39:33.583Z,97173.41
2022-08-02T00:42:11.107Z,97172.75
2022-08-02T00:44:40.125Z,97167.03
2022-08-02T00:47:08.447Z,97170.75
2022-08-02T00:49:39.767Z,97181.44
2022-08-02T00:52:14.325Z,97179.09
2022-08-02T00:54:44.749Z,97181.31
2022-08-02T00:57:17.895Z,97174.41
2022-08-02T00:59:49.240Z,97177.66
2022-08-02T01:02:17.886Z,97173.22
2022-08-02T01:04:47.127Z,97175.50
2022-08-02T01:07:15.979Z,97171.56
2022-08-02T01:09:49.735Z,97167.34
2022-08-02T01:12:20.534Z,97167.72
2022-08-02T01:14:53.043Z,97167.56
2022-08-02T01:17:25.521Z,97159.94
2022-08-02T01:19:59.370Z,97163.34
2022-08-02T01:23:09.765Z,97164.50
2022-08-02T01:25:55.155Z,97163.31
2022-08-02T01:28:39.474Z,97162.28
2022-08-02T01:31:12.991Z,97154.94
2022-08-02T01:33:55.108Z,97163.56
2022-08-02T01:36:28.285Z,97153.16
2022-08-02T01:39:00.517Z,97151.38
2022-08-02T01:41:29.823Z,97145.06
2022-08-02T01:44:05.728Z,97143.28
2022-08-02T01:46:41.352Z,97135.03
2022-08-02T01:49:14.002Z,97142.97
2022-08-02T01:52:00.795Z,97140.06
2022-08-02T01:54:34.438Z,97142.53
2022-08-02T01:57:04.739Z,97142.69
2022-08-02T01:59:38.586Z,97142.66
2022-08-02T02:02:18.334Z,97146.69
2022-08-02T02:04:49.979Z,97152.63
2022-08-02T02:07:24.701Z,97158.41
2022-08-02T02:09:53.489Z,97152.38
2022-08-02T02:12:24.558Z,97148.03
2022-08-02T02:14:58.456Z,97154.16
2022-08-02T02:18:11.442Z,97155.94
2022-08-02T02:20:22.753Z,97159.06
2022-08-02T02:22:54.497Z,97161.47
2022-08-02T02:25:35.872Z,97160.69
2022-08-02T02:28:16.260Z,97168.03
2022-08-02T02:30:54.193Z,97162.81
2022-08-02T02:33:29.469Z,97164.44
2022-08-02T02:36:01.991Z,97160.75
2022-08-02T02:38:34.807Z,97169.19
2022-08-02T02:41:07.519Z,97175.72
2022-08-02T02:43:48.632Z,97181.19
2022-08-02T02:46:25.222Z,97172.91
2022-08-02T02:49:37.128Z,97177.19
2022-08-02T02:52:06.433Z,97173.50
2022-08-02T02:54:35.615Z,97183.81
2022-08-02T02:57:08.581Z,97175.41
2022-08-02T02:59:48.963Z,97182.56
2022-08-02T03:02:20.936Z,97184.69
2022-08-02T03:04:57.539Z,97183.81
2022-08-02T03:07:35.544Z,97184.03
2022-08-02T03:10:05.481Z,97176.38
2022-08-02T03:12:34.345Z,97180.47
2022-08-02T03:15:08.394Z,97183.16
2022-08-02T03:17:46.023Z,97188.13
2022-08-02T03:20:19.869Z,97187.72
2022-08-02T03:22:57.878Z,97195.97
2022-08-02T03:25:26.132Z,97199.44
2022-08-02T03:27:54.310Z,97206.88
2022-08-02T03:30:27.835Z,97209.41
2022-08-02T03:33:01.514Z,97217.41
2022-08-02T03:35:35.395Z,97209.88
2022-08-02T03:38:03.944Z,97217.28
2022-08-02T03:40:35.184Z,97210.97
2022-08-02T03:43:03.861Z,97221.09
2022-08-02T03:45:32.080Z,97220.34
2022-08-02T03:48:02.419Z,97214.47
2022-08-02T03:50:53.640Z,97217.31
2022-08-02T03:53:22.532Z,97221.66
2022-08-02T03:55:55.933Z,97217.53
2022-08-02T03:58:27.741Z,97218.59
2022-08-02T04:01:01.385Z,97216.50
2022-08-02T04:03:31.357Z,97220.84
2022-08-02T04:06:03.299Z,97222.03
2022-08-02T04:08:37.992Z,97225.72
2022-08-02T04:11:24.157Z,97224.88
2022-08-02T04:13:57.724Z,97222.13
2022-08-02T04:16:40.615Z,97227.69
2022-08-02T04:19:15.457Z,97227.91
2022-08-02T04:21:52.229Z,97232.19
2022-08-02T04:24:24.437Z,97230.53
2022-08-02T04:26:56.279Z,97221.31
2022-08-02T04:29:30.579Z,97228.56
2022-08-02T04:32:02.614Z,97224.69
2022-08-02T04:34:35.852Z,97230.75
2022-08-02T04:37:06.788Z,97227.16
2022-08-02T04:39:37.251Z,97229.81
2022-08-02T04:42:08.758Z,97231.59
2022-08-02T04:44:40.623Z,97235.25
2022-08-02T04:47:09.503Z,97226.28
2022-08-02T04:49:42.587Z,97229.53
2022-08-02T04:52:11.146Z,97236.78
2022-08-02T04:54:51.739Z,97237.28
2022-08-02T05:00:30.525Z,97246.66
2022-08-02T05:03:14.007Z,97248.88
2022-08-02T05:06:07.617Z,97256.56
2022-08-02T05:09:06.042Z,97258.97
2022-08-02T05:11:40.593Z,97257.66
2022-08-02T05:14:20.430Z,97257.34
2022-08-02T05:17:00.151Z,97256.19
2022-08-02T05:19:44.304Z,97259.28
2022-08-02T05:22:31.420Z,97263.81
2022-08-02T05:25:15.404Z,97258.75
2022-08-02T05:27:50.349Z,97256.25
2022-08-02T05:30:31.414Z,97256.75
2022-08-02T05:33:03.179Z,97245.91
2022-08-02T05:35:47.388Z,97246.41
2022-08-02T05:47:28.457Z,97261.22
2022-08-02T05:50:45.225Z,97258.28
2022-08-02T05:54:05.122Z,97265.75
2022-08-02T06:28:55.177Z,97269.25
2022-08-02T06:51:49.804Z,97280.53
2022-08-02T06:54:50.140Z,97271.97
2022-08-02T07:04:48.546Z,97263.78
2022-08-02T07:13:46.132Z,97264.69
2022-08-02T07:28:29.761Z,97269.56
2022-08-02T07:31:26.314Z,97276.19
2022-08-02T07:34:15.963Z,97277.44
2022-08-02T07:37:35.621Z,97271.31
2022-08-02T07:40:31.579Z,97271.75
2022-08-02T08:15:28.401Z,97242.09
2022-08-02T08:17:57.613Z,97236.72
2022-08-02T08:20:49.390Z,97233.19
2022-08-02T08:42:31.504Z,97232.44
2022-08-02T08:45:02.602Z,97235.41
2022-08-02T08:48:06.189Z,97242.69
2022-08-02T09:03:20.742Z,97248.63
2022-08-02T09:06:19.914Z,97251.34
2022-08-02T09:12:24.303Z,97253.13
2022-08-02T09:15:12.001Z,97254.63
2022-08-02T09:17:53.412Z,97253.81
2022-08-02T09:20:39.134Z,97257.06
2022-08-02T09:23:09.211Z,97246.66
2022-08-02T09:25:59.025Z,97241.63
2022-08-02T09:28:43.770Z,97245.84
2022-08-02T09:40:42.454Z,97247.13
2022-08-02T09:46:27.124Z,97246.25
2022-08-02T09:49:10.203Z,97243.34
2022-08-02T09:52:03.826Z,97224.91
2022-08-02T09:54:50.857Z,97236.00
2022-08-02T09:57:43.883Z,97242.41
2022-08-02T10:00:50.716Z,97235.13
2022-08-02T10:12:26.120Z,97220.00
2022-08-02T10:15:10.558Z,97234.72
2022-08-02T10:20:51.805Z,97223.81
2022-08-02T10:23:42.376Z,97225.72
2022-08-02T10:26:23.871Z,97226.22
2022-08-02T10:29:04.052Z,97215.38
2022-08-02T10:31:51.881Z,97214.00
2022-08-02T10:34:37.785Z,97207.91
2022-08-02T10:37:22.265Z,97213.38
2022-08-02T10:43:04.239Z,97203.50
2022-08-02T10:45:50.594Z,97198.25
2022-08-02T10:51:34.682Z,97178.97
2022-08-02T10:54:28.436Z,97174.25
2022-08-02T10:57:16.160Z,97170.13
2022-08-02T11:00:01.095Z,97176.16
2022-08-02T11:06:25.372Z,97163.63
2022-08-02T11:09:43.113Z,97169.31
2022-08-02T11:12:26.738Z,97169.09
2022-08-02T11:21:32.417Z,97166.88
2022-08-02T11:24:42.298Z,97167.16
2022-08-02T11:27:34.465Z,97169.16
2022-08-02T11:30:26.723Z,97169.56
2022-08-02T11:36:14.711Z,97171.66
2022-08-02T11:42:04.289Z,97179.16
2022-08-02T11:44:54.885Z,97178.69
2022-08-02T11:47:42.891Z,97166.34
2022-08-02T11:50:30.104Z,97166.81
2022-08-02T11:53:09.434Z,97169.59
2022-08-02T11:55:58.570Z,97174.97
2022-08-02T12:01:36.874Z,97160.88
2022-08-02T12:27:09.484Z,97159.94
2022-08-02T12:29:58.859Z,97149.16
2022-08-02T12:33:00.611Z,97151.50
2022-08-02T12:58:11.884Z,97132.63
2022-08-02T13:16:04.271Z,97119.19
2022-08-02T13:18:38.172Z,97113.59
2022-08-02T13:24:39.609Z,97113.22
2022-08-02T13:27:18.312Z,97115.66
2022-08-02T13:30:12.746Z,97122.13
2022-08-02T13:33:07.007Z,97107.44
2022-08-02T13:35:46.591Z,97107.72
2022-08-02T13:38:33.968Z,97101.94
2022-08-02T13:50:27.721Z,97101.59
2022-08-02T13:53:13.059Z,97090.75
2022-08-02T14:14:03.951Z,97087.22
2022-08-02T14:16:50.073Z,97078.00
2022-08-02T14:22:37.843Z,97075.16
2022-08-02T14:28:30.076Z,97072.28
2022-08-02T14:31:08.783Z,97062.81
2022-08-02T14:33:49.842Z,97072.34
2022-08-02T14:45:51.987Z,97068.31
2022-08-02T14:48:31.466Z,97069.50
2022-08-02T14:57:20.957Z,97070.28
2022-08-02T15:00:07.125Z,97065.28
2022-08-02T15:02:49.887Z,97063.00
2022-08-02T15:17:46.941Z,97052.84
2022-08-02T15:20:28.557Z,97048.19
2022-08-02T15:23:16.777Z,97047.28
2022-08-02T15:28:55.609Z,97044.75
2022-08-02T15:52:45.632Z,97039.38
2022-08-02T15:55:40.022Z,97040.59
2022-08-02T16:20:06.333Z,97063.69
2022-08-02T16:22:37.328Z,97061.53
2022-08-02T16:25:10.081Z,97052.50
2022-08-02T16:28:06.069Z,97052.44
2022-08-02T16:31:04.935Z,97040.31
2022-08-02T16:39:55.329Z,97040.81
2022-08-02T16:48:55.518Z,97033.16
2022-08-02T16:51:41.667Z,97029.78
2022-08-02T17:00:18.372Z,97031.38
2022-08-02T17:03:13.441Z,97028.31
2022-08-02T17:05:59.049Z,97028.84
2022-08-02T17:11:41.723Z,97027.38
2022-08-02T17:14:28.715Z,97031.53
2022-08-02T17:17:08.136Z,97031.50
2022-08-02T17:25:52.670Z,97031.69
2022-08-02T17:37:33.637Z,97036.69
2022-08-02T17:40:13.395Z,97040.94
2022-08-02T17:43:14.740Z,97033.31
2022-08-02T17:46:00.742Z,97049.28
2022-08-02T17:48:56.766Z,97046.19
2022-08-02T17:52:48.403Z,97015.75
2022-08-02T17:54:33.405Z,97047.75
2022-08-02T17:57:08.955Z,97045.03
2022-08-02T17:59:45.282Z,97052.47
2022-08-02T18:02:52.734Z,97053.09
2022-08-02T18:05:53.765Z,97048.88
2022-08-02T18:08:37.783Z,97057.97
2022-08-02T18:11:51.750Z,97053.97
2022-08-02T18:14:16.700Z,97048.97
2022-08-02T18:16:46.738Z,97052.56
2022-08-02T18:19:42.651Z,97054.03
2022-08-02T18:22:12.731Z,97040.81
2022-08-02T18:24:48.165Z,97045.97
2022-08-02T18:27:21.893Z,97041.69
2022-08-02T18:30:00.163Z,97050.63
2022-08-02T18:33:57.556Z,97057.50
2022-08-02T18:35:42.295Z,97053.78
2022-08-02T18:38:20.838Z,97051.94
2022-08-02T18:40:55.209Z,97051.13
2022-08-02T18:43:37.207Z,97057.38
2022-08-02T18:46:20.201Z,97050.63
2022-08-02T18:48:50.965Z,97055.53
2022-08-02T18:54:26.561Z,97067.13
2022-08-02T18:57:04.261Z,97064.66
2022-08-02T18:59:55.713Z,97070.31
2022-08-02T19:02:36.684Z,97074.63
2022-08-02T19:05:08.119Z,97075.66
2022-08-02T19:07:51.078Z,97076.19
2022-08-02T19:10:29.058Z,97074.03
2022-08-02T19:13:06.106Z,97078.34
2022-08-02T19:15:48.431Z,97088.59
2022-08-02T19:18:29.996Z,97081.53
2022-08-02T19:21:05.217Z,97088.78
2022-08-02T19:23:34.452Z,97083.63
2022-08-02T19:26:06.854Z,97084.97
2022-08-02T19:28:52.560Z,97080.09
2022-08-02T19:31:59.583Z,97086.03
2022-08-02T19:34:25.146Z,97091.41
2022-08-02T19:36:54.544Z,97092.19
2022-08-02T19:39:25.271Z,97090.81
2022-08-02T19:42:01.459Z,97089.97
2022-08-02T19:44:45.673Z,97092.09
2022-08-02T19:47:23.282Z,97105.28
2022-08-02T19:50:16.011Z,97096.09
2022-08-02T20:20:11.431Z,97114.78
2022-08-02T20:23:32.545Z,97103.97
2022-08-02T20:26:13.131Z,97109.84
2022-08-02T20:35:01.467Z,97106.34
2022-08-02T20:40:45.356Z,97100.06
2022-08-02T20:46:22.993Z,97111.03
2022-08-02T20:49:05.516Z,97108.81
2022-08-02T20:51:56.379Z,97114.06
2022-08-02T20:54:35.300Z,97109.47
2022-08-02T21:06:18.779Z,97115.97
2022-08-02T21:12:01.868Z,97110.66
2022-08-02T21:14:38.664Z,97115.84
2022-08-02T21:20:27.515Z,97115.03
2022-08-02T21:29:14.583Z,97103.69
2022-08-02T21:31:53.514Z,97100.38
2022-08-02T21:34:35.726Z,97103.38
2022-08-02T21:37:19.765Z,97102.31
2022-08-02T21:48:53.059Z,97105.69
2022-08-02T21:51:28.381Z,97104.63
2022-08-02T21:59:59.861Z,97098.34
2022-08-02T22:02:31.736Z,97111.63
2022-08-02T22:05:13.336Z,97101.16
2022-08-02T22:07:55.613Z,97105.72
2022-08-02T22:10:53.063Z,97108.63
2022-08-02T22:13:47.696Z,97103.13
2022-08-02T22:16:28.537Z,97114.66
2022-08-02T22:24:59.521Z,97130.06
2022-08-02T22:28:35.302Z,97128.59
2022-08-02T22:30:46.226Z,97140.25
2022-08-02T22:34:00.263Z,97137.38
2022-08-02T22:36:44.327Z,97140.81
2022-08-02T22:42:07.376Z,97136.72
2022-08-02T22:44:36.839Z,97140.03
2022-08-02T22:47:14.526Z,97135.72
2022-08-02T22:49:53.278Z,97139.94
2022-08-02T22:52:29.538Z,97137.84
2022-08-02T22:55:03.001Z,97136.91
2022-08-02T22:57:31.509Z,97141.03
2022-08-02T23:00:08.585Z,97134.63
2022-08-02T23:02:39.715Z,97138.38
2022-08-02T23:05:16.406Z,97137.22
2022-08-02T23:07:48.169Z,97139.22
2022-08-02T23:10:22.476Z,97148.22
2022-08-02T23:12:51.057Z,97146.22
2022-08-02T23:15:19.571Z,97144.59
2022-08-02T23:18:22.484Z,97142.97
2022-08-02T23:20:54.561Z,97144.13
2022-08-02T23:23:35.915Z,97140.66
2022-08-02T23:26:07.798Z,97139.38
2022-08-02T23:28:39.345Z,97134.81
2022-08-02T23:31:41.570Z,97145.56
2022-08-02T23:34:13.458Z,97139.84
2022-08-02T23:36:45.397Z,97136.47
2022-08-02T23:39:15.107Z,97143.91
2022-08-02T23:41:49.308Z,97146.38
2022-08-02T23:44:30.982Z,97144.53
2022-08-02T23:47:02.704Z,97152.41
2022-08-02T23:49:41.901Z,97152.28
2022-08-02T23:52:13.331Z,97143.91
2022-08-02T23:54:45.067Z,97146.47
2022-08-02T23:57:20.634Z,97148.56
2022-08-02T23:59:54.041Z,97137.69
